createdAt,value
2017-08-08T00:01:05.521Z,14.40
2017-08-08T00:03:33.796Z,14.30
2017-08-08T00:06:02.130Z,14.30
2017-08-08T00:08:31.220Z,14.30
2017-08-08T00:10:59.591Z,14.30
2017-08-08T00:13:27.908Z,14.20
2017-08-08T00:15:56.955Z,14.20
2017-08-08T00:18:25.284Z,14.20
2017-08-08T00:20:53.670Z,14.20
2017-08-08T00:23:21.967Z,14.10
2017-08-08T00:25:50.357Z,14.30
2017-08-08T00:28:18.673Z,14.20
2017-08-08T00:30:47.728Z,14.20
2017-08-08T00:33:16.011Z,14.10
2017-08-08T00:35:44.330Z,14.10
2017-08-08T00:38:12.643Z,14.10
2017-08-08T00:40:41.690Z,14.00
2017-08-08T00:43:10.120Z,14.00
2017-08-08T00:45:38.512Z,14.10
2017-08-08T00:48:06.894Z,14.00
2017-08-08T00:50:35.215Z,14.10
2017-08-08T00:53:04.267Z,14.00
2017-08-08T00:55:32.592Z,14.00
2017-08-08T00:58:00.883Z,14.00
2017-08-08T01:00:29.272Z,14.00
2017-08-08T01:02:57.596Z,13.90
2017-08-08T01:05:26.666Z,13.80
2017-08-08T01:07:54.950Z,13.80
2017-08-08T01:10:23.268Z,13.90
2017-08-08T01:12:52.356Z,13.80
2017-08-08T01:15:20.671Z,13.80
2017-08-08T01:17:49.737Z,13.70
2017-08-08T01:20:18.064Z,13.70
2017-08-08T01:22:47.110Z,13.60
2017-08-08T01:25:15.649Z,13.60
2017-08-08T01:27:44.031Z,13.60
2017-08-08T01:30:12.328Z,13.60
2017-08-08T01:32:40.722Z,13.70
2017-08-08T01:35:09.095Z,13.70
2017-08-08T01:37:37.501Z,13.70
2017-08-08T01:40:05.800Z,13.60
2017-08-08T01:42:34.899Z,13.60
2017-08-08T01:45:03.199Z,13.60
2017-08-08T01:47:32.390Z,13.60
2017-08-08T01:50:00.708Z,13.50
2017-08-08T01:52:29.074Z,13.50
2017-08-08T01:54:57.402Z,13.50
2017-08-08T01:57:25.689Z,13.50
2017-08-08T01:59:54.048Z,13.50
2017-08-08T02:02:22.355Z,13.50
2017-08-08T02:04:51.442Z,13.60
2017-08-08T02:07:19.832Z,13.60
2017-08-08T02:09:48.110Z,13.60
2017-08-08T02:12:16.503Z,13.50
2017-08-08T02:14:44.838Z,13.50
2017-08-08T02:17:13.887Z,13.50
2017-08-08T02:19:42.205Z,13.50
2017-08-08T02:22:10.585Z,13.60
2017-08-08T02:24:38.982Z,13.50
2017-08-08T02:27:07.273Z,13.50
2017-08-08T02:29:35.592Z,13.40
2017-08-08T02:32:03.912Z,13.50
2017-08-08T02:34:32.194Z,13.50
2017-08-08T02:37:00.534Z,13.50
2017-08-08T02:39:29.610Z,13.30
2017-08-08T02:41:57.904Z,13.30
2017-08-08T02:44:26.218Z,13.30
2017-08-08T02:46:54.599Z,13.30
2017-08-08T02:49:22.925Z,13.30
2017-08-08T02:51:52.022Z,13.30
2017-08-08T02:54:20.336Z,13.30
2017-08-08T02:56:48.679Z,13.30
2017-08-08T02:59:17.062Z,13.30
2017-08-08T03:01:45.362Z,13.20
2017-08-08T03:04:13.670Z,13.30
2017-08-08T03:06:42.750Z,13.30
2017-08-08T03:09:11.075Z,13.20
2017-08-08T03:11:40.254Z,13.20
2017-08-08T03:14:08.543Z,13.20
2017-08-08T03:16:36.876Z,13.20
2017-08-08T03:19:05.228Z,13.20
2017-08-08T03:21:33.562Z,13.20
2017-08-08T03:24:01.842Z,13.20
2017-08-08T03:26:30.169Z,13.20
2017-08-08T03:28:58.475Z,13.20
2017-08-08T03:31:26.755Z,13.20
2017-08-08T03:33:55.080Z,13.20
2017-08-08T03:36:24.176Z,13.20
2017-08-08T03:38:52.509Z,13.20
2017-08-08T03:41:20.787Z,13.20
2017-08-08T03:43:49.062Z,13.20
2017-08-08T03:46:18.502Z,13.20
2017-08-08T03:48:46.946Z,13.10
2017-08-08T03:51:15.230Z,13.20
2017-08-08T03:53:43.545Z,13.20
2017-08-08T03:56:12.738Z,13.30
2017-08-08T03:58:41.023Z,13.30
2017-08-08T04:01:09.340Z,13.30
2017-08-08T04:03:38.381Z,13.40
2017-08-08T04:06:06.708Z,13.40
2017-08-08T04:08:35.019Z,13.40
2017-08-08T04:11:04.071Z,13.60
2017-08-08T04:13:32.388Z,13.60
2017-08-08T04:16:00.695Z,13.70
2017-08-08T04:18:29.011Z,13.80
2017-08-08T04:20:57.368Z,13.90
2017-08-08T04:23:25.660Z,14.10
2017-08-08T04:25:54.044Z,14.10
2017-08-08T04:28:22.544Z,14.30
2017-08-08T04:30:50.826Z,14.40
2017-08-08T04:33:19.211Z,14.50
2017-08-08T04:35:47.611Z,14.60
2017-08-08T04:38:16.003Z,14.80
2017-08-08T04:40:44.287Z,15.00
2017-08-08T04:43:12.594Z,15.20
2017-08-08T04:45:41.683Z,15.60
2017-08-08T04:48:10.084Z,15.50
2017-08-08T04:50:38.362Z,15.80
2017-08-08T04:53:06.679Z,16.00
2017-08-08T04:55:35.759Z,16.40
2017-08-08T04:58:04.151Z,16.40
2017-08-08T05:00:32.555Z,16.50
2017-08-08T05:03:00.932Z,16.50
2017-08-08T05:05:29.340Z,16.60
2017-08-08T05:07:57.622Z,16.70
2017-08-08T05:10:25.908Z,16.80
2017-08-08T05:12:54.228Z,16.90
2017-08-08T05:15:23.275Z,17.10
2017-08-08T05:17:51.586Z,17.10
2017-08-08T05:20:20.021Z,17.30
2017-08-08T05:22:48.381Z,17.50
2017-08-08T05:25:16.684Z,17.50
2017-08-08T05:27:45.876Z,17.70
2017-08-08T05:30:14.183Z,17.70
2017-08-08T05:32:43.270Z,17.70
2017-08-08T05:35:11.578Z,17.70
2017-08-08T05:37:40.664Z,18.00
2017-08-08T05:40:08.939Z,17.90
2017-08-08T05:42:37.249Z,18.10
2017-08-08T05:45:05.645Z,18.20
2017-08-08T05:47:33.923Z,18.30
2017-08-08T05:50:02.320Z,18.30
2017-08-08T05:52:30.703Z,18.50
2017-08-08T05:54:59.095Z,18.60
2017-08-08T05:57:27.487Z,18.70
2017-08-08T05:59:55.884Z,18.90
2017-08-08T06:02:24.166Z,19.00
2017-08-08T06:04:52.475Z,19.00
2017-08-08T06:07:20.818Z,19.10
2017-08-08T06:09:49.348Z,19.20
2017-08-08T06:12:17.631Z,19.30
2017-08-08T06:14:45.911Z,19.40
2017-08-08T06:17:14.229Z,19.50
2017-08-08T06:19:42.502Z,19.40
2017-08-08T06:22:10.823Z,19.60
2017-08-08T06:24:40.316Z,19.80
2017-08-08T06:27:08.603Z,19.80
2017-08-08T06:29:36.992Z,20.10
2017-08-08T06:32:05.374Z,20.10
2017-08-08T06:34:33.683Z,20.10
2017-08-08T06:37:01.959Z,20.10
2017-08-08T06:39:30.345Z,20.10
2017-08-08T06:41:58.624Z,20.30
2017-08-08T06:44:27.035Z,20.30
2017-08-08T06:46:55.324Z,20.40
2017-08-08T06:49:23.707Z,20.30
2017-08-08T06:51:52.104Z,20.30
2017-08-08T06:54:20.495Z,20.40
2017-08-08T06:56:48.889Z,20.50
2017-08-08T06:59:17.200Z,20.50
2017-08-08T07:01:46.267Z,20.80
2017-08-08T07:04:14.542Z,20.80
2017-08-08T07:06:42.963Z,20.70
2017-08-08T07:09:11.238Z,20.80
2017-08-08T07:11:39.514Z,20.90
2017-08-08T07:14:07.897Z,20.80
2017-08-08T07:16:36.215Z,21.00
2017-08-08T07:19:04.522Z,21.20
2017-08-08T07:21:32.894Z,21.30
2017-08-08T07:24:01.286Z,21.40
2017-08-08T07:26:29.583Z,21.60
2017-08-08T07:28:57.859Z,21.70
2017-08-08T07:31:26.264Z,21.90
2017-08-08T07:33:54.539Z,22.00
2017-08-08T07:36:22.864Z,21.80
2017-08-08T07:38:51.917Z,21.70
2017-08-08T07:41:20.200Z,21.60
2017-08-08T07:43:48.517Z,21.80
2017-08-08T07:46:16.796Z,21.90
2017-08-08T07:48:45.103Z,22.10
2017-08-08T07:51:13.387Z,22.20
2017-08-08T07:53:41.675Z,22.30
2017-08-08T07:56:10.062Z,22.40
2017-08-08T07:58:38.339Z,22.50
2017-08-08T08:01:06.656Z,22.70
2017-08-08T08:03:34.951Z,22.30
2017-08-08T08:06:03.258Z,22.20
2017-08-08T08:08:32.314Z,22.20
2017-08-08T08:11:00.626Z,22.20
2017-08-08T08:13:28.938Z,22.40
2017-08-08T08:15:58.132Z,22.70
2017-08-08T08:18:26.510Z,22.60
2017-08-08T08:20:54.786Z,22.70
2017-08-08T08:23:23.190Z,22.70
2017-08-08T08:25:51.480Z,22.80
2017-08-08T08:28:19.870Z,22.80
2017-08-08T08:30:48.195Z,22.90
2017-08-08T08:33:17.267Z,23.30
2017-08-08T08:35:45.773Z,23.30
2017-08-08T08:38:14.151Z,23.30
2017-08-08T08:40:42.427Z,23.50
2017-08-08T08:43:10.752Z,23.50
2017-08-08T08:45:39.126Z,23.50
2017-08-08T08:48:07.455Z,23.20
2017-08-08T08:50:35.756Z,23.20
2017-08-08T08:53:04.087Z,23.20
2017-08-08T08:55:32.382Z,23.20
2017-08-08T08:58:00.691Z,23.30
2017-08-08T09:00:29.788Z,23.20
2017-08-08T09:02:58.180Z,23.10
2017-08-08T09:05:26.573Z,23.10
2017-08-08T09:07:54.948Z,23.20
2017-08-08T09:10:24.988Z,22.90
2017-08-08T09:12:53.290Z,22.80
2017-08-08T09:15:21.587Z,23.00
2017-08-08T09:17:49.961Z,23.10
2017-08-08T09:20:18.234Z,23.20
2017-08-08T09:22:46.647Z,23.10
2017-08-08T09:25:14.941Z,23.20
2017-08-08T09:27:43.319Z,23.40
2017-08-08T09:30:11.707Z,23.60
2017-08-08T09:32:40.008Z,23.60
2017-08-08T09:35:08.290Z,23.30
2017-08-08T09:37:36.604Z,23.30
2017-08-08T09:40:05.802Z,23.00
2017-08-08T09:42:34.098Z,23.00
2017-08-08T09:45:03.187Z,23.20
2017-08-08T09:47:31.585Z,23.20
2017-08-08T09:50:00.647Z,23.50
2017-08-08T09:52:28.971Z,23.40
2017-08-08T09:54:57.352Z,23.60
2017-08-08T09:57:25.669Z,23.60
2017-08-08T09:59:54.042Z,23.80
2017-08-08T10:02:22.941Z,23.80
2017-08-08T10:04:51.344Z,24.00
2017-08-08T10:07:19.723Z,24.20
2017-08-08T10:09:48.031Z,24.40
2017-08-08T10:12:16.352Z,24.70
2017-08-08T10:14:44.704Z,24.50
2017-08-08T10:17:13.016Z,24.60
2017-08-08T10:19:42.108Z,24.80
2017-08-08T10:22:10.397Z,24.80
2017-08-08T10:24:38.770Z,24.80
2017-08-08T10:27:07.050Z,24.80
2017-08-08T10:29:35.450Z,24.80
2017-08-08T10:32:03.743Z,24.70
2017-08-08T10:34:32.134Z,24.80
2017-08-08T10:37:00.414Z,25.00
2017-08-08T10:39:28.733Z,25.10
2017-08-08T10:41:57.052Z,25.40
2017-08-08T10:44:25.406Z,25.30
2017-08-08T10:46:53.901Z,25.30
2017-08-08T10:49:22.170Z,25.20
2017-08-08T10:51:50.460Z,25.10
2017-08-08T10:54:18.846Z,25.10
2017-08-08T10:56:47.890Z,25.10
2017-08-08T10:59:16.975Z,25.20
2017-08-08T11:01:45.251Z,25.20
2017-08-08T11:04:13.567Z,25.00
2017-08-08T11:06:41.949Z,24.90
2017-08-08T11:09:10.340Z,24.70
2017-08-08T11:11:38.722Z,24.40
2017-08-08T11:14:07.030Z,24.20
2017-08-08T11:16:35.316Z,24.20
2017-08-08T11:19:03.690Z,24.30
2017-08-08T11:21:32.012Z,24.60
2017-08-08T11:24:01.064Z,24.60
2017-08-08T11:26:29.388Z,24.60
2017-08-08T11:28:57.849Z,24.80
2017-08-08T11:31:26.163Z,24.90
2017-08-08T11:33:54.447Z,24.90
2017-08-08T11:36:22.755Z,24.80
2017-08-08T11:38:51.040Z,24.90
2017-08-08T11:41:19.344Z,24.90
2017-08-08T11:43:48.426Z,25.30
2017-08-08T11:46:16.704Z,25.30
2017-08-08T11:48:45.111Z,25.40
2017-08-08T11:51:13.505Z,25.20
2017-08-08T11:53:41.889Z,25.50
2017-08-08T11:56:10.195Z,25.50
2017-08-08T11:58:38.487Z,25.50
2017-08-08T12:01:06.787Z,25.60
2017-08-08T12:03:35.839Z,25.40
2017-08-08T12:06:04.365Z,25.40
2017-08-08T12:08:32.648Z,25.50
2017-08-08T12:11:00.934Z,25.30
2017-08-08T12:13:29.246Z,25.50
2017-08-08T12:15:58.349Z,25.50
2017-08-08T12:18:26.731Z,25.50
2017-08-08T12:20:55.052Z,25.50
2017-08-08T12:23:24.096Z,25.50
2017-08-08T12:25:52.520Z,25.50
2017-08-08T12:28:20.843Z,25.70
2017-08-08T12:30:49.191Z,25.90
2017-08-08T12:33:17.489Z,25.90
2017-08-08T12:35:45.875Z,25.60
2017-08-08T12:38:14.200Z,25.80
2017-08-08T12:40:43.275Z,25.90
2017-08-08T12:43:11.559Z,25.90
2017-08-08T12:45:39.880Z,26.20
2017-08-08T12:48:08.954Z,25.90
2017-08-08T12:50:37.276Z,25.90
2017-08-08T12:53:06.329Z,25.70
2017-08-08T12:55:34.640Z,25.60
2017-08-08T12:58:02.910Z,25.70
2017-08-08T13:00:31.219Z,25.70
2017-08-08T13:02:59.532Z,25.50
2017-08-08T13:05:27.802Z,25.40
2017-08-08T13:07:56.110Z,25.60
2017-08-08T13:10:25.305Z,26.10
2017-08-08T13:12:53.588Z,26.10
2017-08-08T13:15:21.974Z,26.30
2017-08-08T13:17:50.282Z,26.20
2017-08-08T13:20:18.586Z,26.00
2017-08-08T13:22:47.772Z,26.10
2017-08-08T13:25:16.061Z,26.10
2017-08-08T13:27:44.391Z,26.10
2017-08-08T13:30:12.738Z,25.70
2017-08-08T13:32:41.065Z,25.90
2017-08-08T13:35:09.384Z,25.70
2017-08-08T13:37:37.704Z,26.00
2017-08-08T13:40:06.011Z,26.30
2017-08-08T13:42:34.396Z,26.20
2017-08-08T13:45:02.707Z,26.20
2017-08-08T13:47:31.747Z,26.30
2017-08-08T13:50:00.054Z,26.30
2017-08-08T13:52:28.359Z,26.20
2017-08-08T13:54:56.754Z,26.20
2017-08-08T13:57:25.026Z,26.20
2017-08-08T13:59:53.339Z,26.30
2017-08-08T14:02:21.647Z,26.30
2017-08-08T14:04:50.695Z,26.20
2017-08-08T14:07:19.012Z,26.20
2017-08-08T14:09:47.296Z,26.00
2017-08-08T14:12:15.613Z,26.20
2017-08-08T14:14:43.982Z,26.40
2017-08-08T14:17:12.375Z,26.50
2017-08-08T14:19:40.650Z,26.60
2017-08-08T14:22:10.711Z,26.70
2017-08-08T14:24:42.985Z,26.70
2017-08-08T14:27:15.046Z,26.70
2017-08-08T14:29:44.483Z,26.70
2017-08-08T14:32:13.369Z,26.80
2017-08-08T14:34:42.293Z,26.70
2017-08-08T14:37:10.612Z,26.50
2017-08-08T14:39:38.959Z,26.50
2017-08-08T14:42:07.336Z,26.60
2017-08-08T14:44:35.747Z,26.70
2017-08-08T14:47:04.063Z,26.70
2017-08-08T14:49:33.120Z,26.70
2017-08-08T14:52:01.479Z,26.70
2017-08-08T14:54:29.759Z,27.00
2017-08-08T14:56:58.108Z,27.30
2017-08-08T14:59:26.383Z,27.30
2017-08-08T15:01:54.676Z,27.50
2017-08-08T15:04:22.984Z,27.60
2017-08-08T15:06:51.399Z,27.50
2017-08-08T15:09:19.694Z,27.40
2017-08-08T15:11:48.113Z,27.30
2017-08-08T15:14:16.412Z,27.30
2017-08-08T15:16:44.719Z,27.50
2017-08-08T15:19:13.121Z,27.60
2017-08-08T15:21:41.415Z,28.40
2017-08-08T15:24:09.731Z,29.20
2017-08-08T15:26:38.012Z,29.80
2017-08-08T15:29:06.332Z,30.70
2017-08-08T15:31:34.611Z,31.20
2017-08-08T15:34:02.931Z,30.80
2017-08-08T15:36:31.247Z,30.20
2017-08-08T15:38:59.631Z,30.10
2017-08-08T15:41:28.039Z,30.00
2017-08-08T15:43:56.349Z,30.40
2017-08-08T15:46:24.656Z,30.30
2017-08-08T15:48:52.932Z,30.00
2017-08-08T15:51:21.349Z,30.30
2017-08-08T15:53:49.649Z,30.60
2017-08-08T15:56:17.922Z,29.90
2017-08-08T15:58:46.257Z,28.90
2017-08-08T16:01:14.534Z,28.40
2017-08-08T16:03:42.864Z,28.00
2017-08-08T16:06:12.717Z,28.00
2017-08-08T16:08:41.779Z,29.40
2017-08-08T16:11:10.121Z,29.40
2017-08-08T16:13:38.406Z,30.20
2017-08-08T16:16:06.724Z,30.10
2017-08-08T16:18:35.008Z,30.20
2017-08-08T16:21:03.328Z,30.50
2017-08-08T16:23:31.736Z,30.00
2017-08-08T16:26:00.036Z,29.10
2017-08-08T16:28:28.342Z,28.10
2017-08-08T16:30:56.636Z,27.70
2017-08-08T16:33:24.939Z,27.40
2017-08-08T16:35:53.225Z,26.80
2017-08-08T16:38:21.641Z,26.70
2017-08-08T16:40:49.944Z,26.30
2017-08-08T16:43:18.338Z,26.10
2017-08-08T16:45:46.658Z,25.90
2017-08-08T16:48:14.954Z,25.70
2017-08-08T16:50:43.226Z,25.60
2017-08-08T16:53:11.543Z,25.50
2017-08-08T16:55:39.845Z,25.50
2017-08-08T16:58:08.158Z,25.30
2017-08-08T17:00:36.562Z,25.30
2017-08-08T17:03:04.868Z,25.30
2017-08-08T17:05:33.263Z,25.20
2017-08-08T17:08:01.540Z,25.10
2017-08-08T17:10:29.862Z,25.10
2017-08-08T17:12:58.166Z,25.10
2017-08-08T17:15:26.452Z,25.00
2017-08-08T17:17:54.770Z,25.10
2017-08-08T17:20:23.074Z,25.10
2017-08-08T17:22:51.398Z,25.20
2017-08-08T17:25:19.775Z,25.30
2017-08-08T17:27:48.064Z,25.30
2017-08-08T17:30:16.488Z,25.20
2017-08-08T17:32:44.772Z,25.20
2017-08-08T17:35:13.092Z,24.80
2017-08-08T17:37:41.486Z,24.60
2017-08-08T17:40:09.818Z,24.50
2017-08-08T17:42:38.162Z,24.40
2017-08-08T17:45:06.503Z,24.30
2017-08-08T17:47:34.898Z,24.30
2017-08-08T17:50:03.205Z,24.20
2017-08-08T17:52:31.478Z,24.20
2017-08-08T17:54:59.798Z,24.20
2017-08-08T17:57:28.082Z,24.10
2017-08-08T17:59:56.400Z,24.00
2017-08-08T18:02:24.676Z,24.00
2017-08-08T18:04:52.983Z,24.00
2017-08-08T18:07:21.283Z,23.90
2017-08-08T18:09:49.584Z,23.60
2017-08-08T18:12:18.136Z,23.50
2017-08-08T18:14:46.402Z,23.40
2017-08-08T18:17:14.683Z,23.30
2017-08-08T18:19:43.018Z,23.30
2017-08-08T18:22:11.330Z,23.20
2017-08-08T18:24:39.642Z,23.10
2017-08-08T18:27:08.049Z,23.00
2017-08-08T18:29:37.196Z,22.80
2017-08-08T18:32:06.246Z,22.80
2017-08-08T18:34:34.578Z,22.80
2017-08-08T18:37:02.864Z,22.70
2017-08-08T18:39:31.400Z,22.60
2017-08-08T18:41:59.691Z,22.40
2017-08-08T18:44:27.976Z,22.30
2017-08-08T18:46:56.393Z,22.30
2017-08-08T18:49:24.676Z,22.20
2017-08-08T18:51:52.987Z,22.10
2017-08-08T18:54:21.302Z,22.10
2017-08-08T18:56:49.711Z,22.10
2017-08-08T18:59:18.139Z,22.10
2017-08-08T19:01:46.536Z,22.20
2017-08-08T19:04:14.854Z,22.10
2017-08-08T19:06:43.908Z,22.10
2017-08-08T19:09:12.196Z,22.10
2017-08-08T19:11:40.520Z,22.10
2017-08-08T19:14:08.874Z,22.00
2017-08-08T19:16:37.160Z,22.00
2017-08-08T19:19:05.490Z,21.90
2017-08-08T19:21:34.779Z,21.80
2017-08-08T19:24:03.079Z,21.80
2017-08-08T19:26:31.377Z,21.90
2017-08-08T19:28:59.704Z,21.80
2017-08-08T19:31:28.050Z,21.70
2017-08-08T19:33:56.348Z,21.60
2017-08-08T19:36:24.704Z,21.60
2017-08-08T19:38:53.029Z,21.50
2017-08-08T19:41:21.407Z,21.40
2017-08-08T19:43:49.802Z,21.30
2017-08-08T19:46:18.116Z,21.20
2017-08-08T19:48:46.407Z,21.20
2017-08-08T19:51:14.820Z,21.30
2017-08-08T19:53:43.111Z,21.30
2017-08-08T19:56:11.628Z,21.20
2017-08-08T19:58:39.902Z,21.10
2017-08-08T20:01:08.223Z,21.00
2017-08-08T20:03:36.504Z,21.00
2017-08-08T20:06:04.826Z,21.10
2017-08-08T20:08:33.103Z,21.10
2017-08-08T20:11:01.387Z,21.10
2017-08-08T20:13:29.755Z,20.90
2017-08-08T20:15:58.032Z,20.80
2017-08-08T20:18:26.321Z,20.90
2017-08-08T20:20:54.638Z,20.90
2017-08-08T20:23:22.915Z,21.00
2017-08-08T20:25:51.239Z,20.90
2017-08-08T20:28:19.538Z,20.90
2017-08-08T20:30:47.838Z,20.80
2017-08-08T20:33:16.156Z,20.90
2017-08-08T20:35:44.441Z,20.90
2017-08-08T20:38:12.819Z,20.90
2017-08-08T20:40:41.151Z,20.80
2017-08-08T20:43:09.468Z,20.80
2017-08-08T20:45:37.758Z,20.90
2017-08-08T20:48:06.071Z,20.90
2017-08-08T20:50:34.356Z,20.90
2017-08-08T20:53:02.772Z,20.90
2017-08-08T20:55:31.074Z,20.90
2017-08-08T20:57:59.500Z,20.90
2017-08-08T21:00:27.894Z,20.90
2017-08-08T21:02:56.174Z,20.90
2017-08-08T21:05:24.492Z,20.90
2017-08-08T21:07:53.821Z,20.90
2017-08-08T21:10:22.136Z,20.80
2017-08-08T21:12:50.433Z,20.80
2017-08-08T21:15:18.816Z,20.80
2017-08-08T21:17:47.109Z,20.70
2017-08-08T21:20:15.528Z,20.70
2017-08-08T21:22:43.830Z,20.70
2017-08-08T21:25:12.130Z,20.80
2017-08-08T21:27:40.536Z,20.80
2017-08-08T21:30:08.944Z,20.80
2017-08-08T21:32:37.329Z,20.90
2017-08-08T21:35:05.635Z,20.80
2017-08-08T21:37:34.042Z,20.90
2017-08-08T21:40:02.383Z,20.80
2017-08-08T21:42:31.488Z,20.80
2017-08-08T21:44:59.781Z,20.90
2017-08-08T21:47:28.100Z,20.80
2017-08-08T21:49:56.688Z,20.80
2017-08-08T21:52:24.985Z,20.80
2017-08-08T21:54:53.292Z,20.80
2017-08-08T21:57:21.608Z,20.80
2017-08-08T21:59:49.996Z,20.70
2017-08-08T22:02:18.514Z,20.60
2017-08-08T22:04:46.803Z,20.60
2017-08-08T22:07:15.120Z,20.60
2017-08-08T22:09:43.508Z,20.60
2017-08-08T22:12:11.823Z,20.60
2017-08-08T22:14:40.148Z,20.60
2017-08-08T22:17:09.236Z,20.50
2017-08-08T22:19:37.542Z,20.50
2017-08-08T22:22:05.886Z,20.50
2017-08-08T22:24:34.244Z,20.50
2017-08-08T22:27:02.648Z,20.40
2017-08-08T22:29:30.947Z,20.40
2017-08-08T22:31:59.356Z,20.40
2017-08-08T22:34:27.664Z,20.40
2017-08-08T22:36:56.060Z,20.40
2017-08-08T22:39:24.367Z,20.40
2017-08-08T22:41:52.864Z,20.50
2017-08-08T22:44:21.264Z,20.50
2017-08-08T22:46:49.668Z,20.60
2017-08-08T22:49:17.987Z,20.60
2017-08-08T22:51:47.190Z,20.60
2017-08-08T22:54:15.525Z,20.60
2017-08-08T22:56:44.584Z,20.60
2017-08-08T22:59:13.015Z,20.60
2017-08-08T23:01:41.316Z,20.60
2017-08-08T23:04:09.631Z,20.60
2017-08-08T23:06:38.122Z,20.60
2017-08-08T23:09:06.435Z,20.60
2017-08-08T23:11:34.827Z,20.60
2017-08-08T23:14:03.178Z,20.60
2017-08-08T23:16:31.548Z,20.60
2017-08-08T23:18:59.839Z,20.60
2017-08-08T23:21:28.338Z,20.50
2017-08-08T23:23:56.653Z,20.50
2017-08-08T23:26:24.943Z,20.60
2017-08-08T23:28:53.554Z,20.60
2017-08-08T23:31:21.860Z,20.50
2017-08-08T23:36:24.928Z,20.60
2017-08-08T23:38:53.214Z,20.60
2017-08-08T23:41:21.544Z,20.60
2017-08-08T23:43:50.738Z,20.60
2017-08-08T23:46:19.344Z,20.60
2017-08-08T23:48:47.767Z,20.60
2017-08-08T23:51:16.154Z,20.60
2017-08-08T23:53:44.504Z,20.60
2017-08-08T23:56:12.877Z,20.60
2017-08-08T23:58:41.271Z,20.60
